DLH6NJ EDDM-EPKK
Flight info
| Callsign | DLH6NJ |
|---|---|
| Flight time | 0h 57m |
| Altitude | 33000 |
| Route | BIBAG2Q BIBAG Y133 BEPAS DCT NELPA DCT PADKA |
| Aircraft | A320/M-SDE3FGHIRWY/LB1 |
Departure
| Time | 2026-05-04 17:34 |
|---|---|
| Airport | Munich Airport (EDDM) |
Arrival
| Time | 2026-05-04 18:31 |
|---|---|
| Airport | Kraków John Paul II International Airport (EPKK) |
| Time | Latitude | Longitude | Altitude | Speed | Heading |
|---|---|---|---|---|---|
| 2026-05-04 16:53 | 48.35271 | 11.79344 | 1486 ft | 0 kts | 263° |
| 2026-05-04 17:19 | 48.35275 | 11.79390 | 1475 ft | 4 kts | 263° |
| 2026-05-04 17:19 | 48.35285 | 11.79459 | 1479 ft | 4 kts | 228° |
| 2026-05-04 17:20 | 48.35329 | 11.79476 | 1479 ft | 2 kts | 173° |
| 2026-05-04 17:20 | 48.35331 | 11.79475 | 1477 ft | 0 kts | 173° |
| 2026-05-04 17:23 | 48.35308 | 11.79479 | 1476 ft | 7 kts | 173° |
| 2026-05-04 17:23 | 48.35240 | 11.79490 | 1485 ft | 13 kts | 174° |
| 2026-05-04 17:23 | 48.35009 | 11.79532 | 1480 ft | 13 kts | 174° |
| 2026-05-04 17:24 | 48.34961 | 11.79540 | 1479 ft | 3 kts | 173° |
| 2026-05-04 17:24 | 48.34917 | 11.79547 | 1473 ft | 4 kts | 173° |
| 2026-05-04 17:25 | 48.34915 | 11.79548 | 1474 ft | 0 kts | 173° |
| 2026-05-04 17:26 | 48.34896 | 11.79551 | 1480 ft | 0 kts | 173° |
| 2026-05-04 17:26 | 48.34788 | 11.79488 | 1481 ft | 15 kts | 256° |
| 2026-05-04 17:27 | 48.34755 | 11.79089 | 1485 ft | 22 kts | 263° |
| 2026-05-04 17:27 | 48.34719 | 11.78623 | 1481 ft | 23 kts | 263° |
| 2026-05-04 17:28 | 48.34684 | 11.78171 | 1483 ft | 22 kts | 263° |
| 2026-05-04 17:29 | 48.34631 | 11.77476 | 1485 ft | 24 kts | 263° |
| 2026-05-04 17:29 | 48.34568 | 11.76666 | 1485 ft | 28 kts | 263° |
| 2026-05-04 17:30 | 48.34506 | 11.75846 | 1474 ft | 24 kts | 263° |
| 2026-05-04 17:31 | 48.34466 | 11.75338 | 1485 ft | 22 kts | 263° |
| 2026-05-04 17:31 | 48.34209 | 11.75253 | 1475 ft | 3 kts | 173° |
| 2026-05-04 17:32 | 48.34195 | 11.75256 | 1482 ft | 7 kts | 173° |
| 2026-05-04 17:33 | 48.34087 | 11.75343 | 1481 ft | 0 kts | 81° |
| 2026-05-04 17:33 | 48.34093 | 11.75408 | 1480 ft | 24 kts | 83° |
| 2026-05-04 17:34 | 48.34379 | 11.79090 | 1863 ft | 168 kts | 83° |
| 2026-05-04 17:34 | 48.34495 | 11.80849 | 2606 ft | 170 kts | 83° |
| 2026-05-04 17:35 | 48.34924 | 11.86804 | 3774 ft | 223 kts | 83° |
| 2026-05-04 17:35 | 48.35301 | 11.91949 | 4731 ft | 264 kts | 84° |
| 2026-05-04 17:35 | 48.35516 | 11.94728 | 5582 ft | 270 kts | 84° |
| 2026-05-04 17:36 | 48.35747 | 11.97525 | 6421 ft | 275 kts | 84° |
| 2026-05-04 17:36 | 48.35999 | 12.00422 | 7247 ft | 281 kts | 84° |
| 2026-05-04 17:36 | 48.36223 | 12.03367 | 8074 ft | 286 kts | 86° |
| 2026-05-04 17:36 | 48.36395 | 12.06377 | 8912 ft | 291 kts | 88° |
| 2026-05-04 17:37 | 48.36546 | 12.09447 | 9734 ft | 297 kts | 89° |
| 2026-05-04 17:37 | 48.36691 | 12.12596 | 10303 ft | 311 kts | 89° |
| 2026-05-04 17:37 | 48.36845 | 12.15968 | 10567 ft | 335 kts | 89° |
| 2026-05-04 17:37 | 48.37011 | 12.19519 | 11011 ft | 349 kts | 89° |
| 2026-05-04 17:38 | 48.37190 | 12.23199 | 11713 ft | 355 kts | 89° |
| 2026-05-04 17:38 | 48.37378 | 12.26933 | 12460 ft | 360 kts | 89° |
| 2026-05-04 17:38 | 48.37571 | 12.30701 | 13385 ft | 355 kts | 89° |
| 2026-05-04 17:38 | 48.37755 | 12.34272 | 14697 ft | 336 kts | 89° |
| 2026-05-04 17:39 | 48.38100 | 12.41222 | 15915 ft | 333 kts | 89° |
| 2026-05-04 17:39 | 48.38268 | 12.44721 | 16585 ft | 336 kts | 89° |
| 2026-05-04 17:39 | 48.38436 | 12.48201 | 17269 ft | 338 kts | 88° |
| 2026-05-04 17:40 | 48.38608 | 12.51758 | 17942 ft | 341 kts | 88° |
| 2026-05-04 17:40 | 48.38779 | 12.55349 | 18554 ft | 345 kts | 88° |
| 2026-05-04 17:40 | 48.38952 | 12.58964 | 18833 ft | 347 kts | 88° |
| 2026-05-04 17:40 | 48.39124 | 12.62591 | 18901 ft | 347 kts | 88° |
| 2026-05-04 17:41 | 48.39295 | 12.66224 | 18917 ft | 347 kts | 88° |
| 2026-05-04 17:41 | 48.39466 | 12.69864 | 18912 ft | 347 kts | 88° |
| 2026-05-04 17:41 | 48.39676 | 12.73485 | 18912 ft | 348 kts | 83° |
| 2026-05-04 17:41 | 48.40191 | 12.77011 | 18912 ft | 350 kts | 75° |
| 2026-05-04 17:42 | 48.41003 | 12.80542 | 18959 ft | 365 kts | 72° |
| 2026-05-04 17:42 | 48.41869 | 12.84247 | 19094 ft | 383 kts | 72° |
| 2026-05-04 17:42 | 48.42764 | 12.88112 | 19296 ft | 397 kts | 72° |
| 2026-05-04 17:42 | 48.43680 | 12.92085 | 19752 ft | 403 kts | 72° |
| 2026-05-04 17:43 | 48.44602 | 12.96093 | 20260 ft | 407 kts | 72° |
| 2026-05-04 17:43 | 48.45537 | 13.00152 | 20774 ft | 410 kts | 71° |
| 2026-05-04 17:43 | 48.46474 | 13.04228 | 21276 ft | 413 kts | 71° |
| 2026-05-04 17:43 | 48.47520 | 13.08282 | 21771 ft | 417 kts | 64° |
| 2026-05-04 17:44 | 48.48988 | 13.12003 | 22276 ft | 419 kts | 53° |
| 2026-05-04 17:44 | 48.50902 | 13.15332 | 22782 ft | 420 kts | 42° |
| 2026-05-04 17:44 | 48.53183 | 13.18111 | 23297 ft | 421 kts | 32° |
| 2026-05-04 17:44 | 48.55705 | 13.20389 | 23732 ft | 423 kts | 28° |
| 2026-05-04 17:45 | 48.58269 | 13.22650 | 24113 ft | 427 kts | 28° |
| 2026-05-04 17:45 | 48.60807 | 13.24902 | 24496 ft | 429 kts | 29° |
| 2026-05-04 17:45 | 48.63392 | 13.27210 | 24877 ft | 432 kts | 29° |
| 2026-05-04 17:45 | 48.65990 | 13.29535 | 25275 ft | 435 kts | 29° |
| 2026-05-04 17:46 | 48.68602 | 13.31876 | 25677 ft | 437 kts | 29° |
| 2026-05-04 17:46 | 48.71227 | 13.34230 | 26046 ft | 440 kts | 29° |
| 2026-05-04 17:46 | 48.73877 | 13.36610 | 26418 ft | 442 kts | 29° |
| 2026-05-04 17:46 | 48.76530 | 13.38993 | 26801 ft | 445 kts | 29° |
| 2026-05-04 17:47 | 48.79209 | 13.41399 | 27158 ft | 447 kts | 29° |
| 2026-05-04 17:47 | 48.81866 | 13.43786 | 27515 ft | 450 kts | 29° |
| 2026-05-04 17:47 | 48.84562 | 13.46220 | 27889 ft | 452 kts | 30° |
| 2026-05-04 17:47 | 48.87112 | 13.49085 | 28246 ft | 457 kts | 40° |
| 2026-05-04 17:48 | 48.89336 | 13.52573 | 28592 ft | 460 kts | 50° |
| 2026-05-04 17:48 | 48.91176 | 13.56586 | 28946 ft | 463 kts | 60° |
| 2026-05-04 17:48 | 48.92573 | 13.61000 | 29274 ft | 465 kts | 68° |
| 2026-05-04 17:48 | 48.93795 | 13.65521 | 29604 ft | 467 kts | 68° |
| 2026-05-04 17:49 | 48.95037 | 13.70116 | 29890 ft | 470 kts | 68° |
| 2026-05-04 17:49 | 48.96294 | 13.74743 | 30150 ft | 473 kts | 67° |
| 2026-05-04 17:49 | 48.97557 | 13.79389 | 30441 ft | 474 kts | 67° |
| 2026-05-04 17:49 | 48.98798 | 13.83973 | 30703 ft | 476 kts | 67° |
| 2026-05-04 17:50 | 49.00057 | 13.88651 | 30972 ft | 477 kts | 68° |
| 2026-05-04 17:50 | 49.01315 | 13.93339 | 31244 ft | 478 kts | 68° |
| 2026-05-04 17:50 | 49.02572 | 13.98036 | 31621 ft | 477 kts | 68° |
| 2026-05-04 17:50 | 49.03823 | 14.02722 | 31995 ft | 476 kts | 68° |
| 2026-05-04 17:51 | 49.05072 | 14.07400 | 32363 ft | 475 kts | 68° |
| 2026-05-04 17:51 | 49.06300 | 14.12004 | 32714 ft | 475 kts | 68° |
| 2026-05-04 17:51 | 49.07547 | 14.16684 | 32918 ft | 475 kts | 68° |
| 2026-05-04 17:51 | 49.08781 | 14.21337 | 32946 ft | 467 kts | 68° |
| 2026-05-04 17:52 | 49.11192 | 14.30482 | 32949 ft | 462 kts | 68° |
| 2026-05-04 17:52 | 49.13573 | 14.39553 | 32944 ft | 461 kts | 68° |
| 2026-05-04 17:53 | 49.15974 | 14.48662 | 32939 ft | 461 kts | 68° |
| 2026-05-04 17:53 | 49.18361 | 14.57770 | 32938 ft | 461 kts | 68° |
| 2026-05-04 17:54 | 49.20725 | 14.66840 | 32940 ft | 461 kts | 68° |
| 2026-05-04 17:54 | 49.22689 | 14.74412 | 32937 ft | 461 kts | 68° |
| 2026-05-04 17:55 | 49.25052 | 14.83570 | 32941 ft | 461 kts | 67° |
| 2026-05-04 17:55 | 49.27384 | 14.92668 | 32942 ft | 461 kts | 67° |
| 2026-05-04 17:56 | 49.29601 | 15.01894 | 32945 ft | 461 kts | 70° |
| 2026-05-04 17:56 | 49.31546 | 15.11217 | 32945 ft | 461 kts | 72° |
| 2026-05-04 17:57 | 49.33444 | 15.20628 | 32946 ft | 461 kts | 71° |
| 2026-05-04 17:57 | 49.35390 | 15.30014 | 32946 ft | 461 kts | 71° |
| 2026-05-04 17:58 | 49.37354 | 15.39336 | 32952 ft | 461 kts | 71° |
| 2026-05-04 17:58 | 49.39318 | 15.48693 | 32965 ft | 460 kts | 71° |
| 2026-05-04 17:59 | 49.41264 | 15.58070 | 32967 ft | 459 kts | 71° |
| 2026-05-04 18:00 | 49.44141 | 15.72035 | 32963 ft | 458 kts | 71° |
| 2026-05-04 18:00 | 49.46054 | 15.81378 | 32963 ft | 458 kts | 71° |
| 2026-05-04 18:01 | 49.47940 | 15.90663 | 32957 ft | 457 kts | 71° |
| 2026-05-04 18:01 | 49.49843 | 16.00029 | 32960 ft | 457 kts | 71° |
| 2026-05-04 18:02 | 49.52662 | 16.14032 | 32963 ft | 456 kts | 71° |
| 2026-05-04 18:02 | 49.54522 | 16.23328 | 32963 ft | 456 kts | 71° |
| 2026-05-04 18:03 | 49.56393 | 16.32675 | 32959 ft | 455 kts | 71° |
| 2026-05-04 18:03 | 49.58237 | 16.41964 | 32959 ft | 455 kts | 71° |
| 2026-05-04 18:04 | 49.60081 | 16.51317 | 32954 ft | 455 kts | 71° |
| 2026-05-04 18:05 | 49.62842 | 16.65339 | 32959 ft | 455 kts | 72° |
| 2026-05-04 18:05 | 49.64671 | 16.74694 | 32959 ft | 455 kts | 72° |
| 2026-05-04 18:06 | 49.67381 | 16.88683 | 32958 ft | 455 kts | 72° |
| 2026-05-04 18:06 | 49.69191 | 16.98059 | 32960 ft | 455 kts | 72° |
| 2026-05-04 18:07 | 49.70991 | 17.07436 | 32965 ft | 454 kts | 72° |
| 2026-05-04 18:07 | 49.72770 | 17.16753 | 32966 ft | 454 kts | 72° |
| 2026-05-04 18:08 | 49.74551 | 17.26142 | 32966 ft | 454 kts | 72° |
| 2026-05-04 18:08 | 49.76330 | 17.35543 | 32970 ft | 454 kts | 72° |
| 2026-05-04 18:09 | 49.79840 | 17.54264 | 32981 ft | 453 kts | 72° |
| 2026-05-04 18:10 | 49.81586 | 17.63649 | 32983 ft | 452 kts | 72° |
| 2026-05-04 18:10 | 49.83314 | 17.72964 | 32980 ft | 452 kts | 72° |
| 2026-05-04 18:11 | 49.85050 | 17.82353 | 32643 ft | 452 kts | 72° |
| 2026-05-04 18:11 | 49.85902 | 17.86998 | 32379 ft | 452 kts | 72° |
| 2026-05-04 18:11 | 49.86758 | 17.91688 | 32111 ft | 451 kts | 72° |
| 2026-05-04 18:12 | 49.87614 | 17.96385 | 31861 ft | 449 kts | 72° |
| 2026-05-04 18:12 | 49.88461 | 18.01039 | 31611 ft | 447 kts | 72° |
| 2026-05-04 18:12 | 49.89302 | 18.05667 | 31352 ft | 445 kts | 73° |
| 2026-05-04 18:12 | 49.90141 | 18.10286 | 31098 ft | 443 kts | 73° |
| 2026-05-04 18:13 | 49.90974 | 18.14885 | 30857 ft | 442 kts | 73° |
| 2026-05-04 18:13 | 49.91793 | 18.19421 | 30611 ft | 441 kts | 73° |
| 2026-05-04 18:13 | 49.93159 | 18.28696 | 30105 ft | 439 kts | 84° |
| 2026-05-04 18:14 | 49.93243 | 18.33379 | 29836 ft | 438 kts | 92° |
| 2026-05-04 18:14 | 49.93094 | 18.38110 | 29552 ft | 437 kts | 92° |
| 2026-05-04 18:14 | 49.92950 | 18.42812 | 29131 ft | 431 kts | 92° |
| 2026-05-04 18:15 | 49.92669 | 18.52104 | 27327 ft | 436 kts | 92° |
| 2026-05-04 18:15 | 49.92408 | 18.61411 | 25029 ft | 430 kts | 89° |
| 2026-05-04 18:15 | 49.92496 | 18.66025 | 24093 ft | 422 kts | 88° |
| 2026-05-04 18:16 | 49.92620 | 18.70541 | 23107 ft | 416 kts | 87° |
| 2026-05-04 18:16 | 49.92765 | 18.75000 | 22078 ft | 409 kts | 87° |
| 2026-05-04 18:16 | 49.92914 | 18.79356 | 21571 ft | 395 kts | 88° |
| 2026-05-04 18:17 | 49.93185 | 18.87561 | 20621 ft | 376 kts | 88° |
| 2026-05-04 18:17 | 49.93309 | 18.91614 | 20171 ft | 374 kts | 88° |
| 2026-05-04 18:17 | 49.93540 | 18.99666 | 19202 ft | 373 kts | 89° |
| 2026-05-04 18:18 | 49.93652 | 19.03691 | 18724 ft | 372 kts | 89° |
| 2026-05-04 18:18 | 49.93762 | 19.07657 | 18245 ft | 372 kts | 89° |
| 2026-05-04 18:18 | 49.93874 | 19.11684 | 17731 ft | 371 kts | 89° |
| 2026-05-04 18:18 | 49.93982 | 19.15675 | 17245 ft | 369 kts | 89° |
| 2026-05-04 18:19 | 49.94189 | 19.23619 | 16309 ft | 366 kts | 90° |
| 2026-05-04 18:19 | 49.94290 | 19.27569 | 15855 ft | 364 kts | 90° |
| 2026-05-04 18:19 | 49.94389 | 19.31398 | 15401 ft | 352 kts | 90° |
| 2026-05-04 18:20 | 49.94484 | 19.35174 | 14644 ft | 350 kts | 90° |
| 2026-05-04 18:20 | 49.94575 | 19.38891 | 14314 ft | 336 kts | 90° |
| 2026-05-04 18:20 | 49.94662 | 19.42478 | 13860 ft | 327 kts | 90° |
| 2026-05-04 18:20 | 49.94746 | 19.46008 | 13336 ft | 327 kts | 90° |
| 2026-05-04 18:21 | 49.94922 | 19.49535 | 12945 ft | 328 kts | 82° |
| 2026-05-04 18:21 | 49.95385 | 19.52952 | 12565 ft | 325 kts | 79° |
| 2026-05-04 18:21 | 49.95853 | 19.56365 | 12196 ft | 322 kts | 80° |
| 2026-05-04 18:21 | 49.96314 | 19.59779 | 11810 ft | 321 kts | 80° |
| 2026-05-04 18:22 | 49.96768 | 19.63159 | 11423 ft | 316 kts | 80° |
| 2026-05-04 18:22 | 49.97213 | 19.66464 | 11060 ft | 315 kts | 80° |
| 2026-05-04 18:22 | 49.97664 | 19.69804 | 10652 ft | 315 kts | 79° |
| 2026-05-04 18:22 | 49.98115 | 19.73139 | 10279 ft | 314 kts | 79° |
| 2026-05-04 18:23 | 49.98559 | 19.76410 | 9918 ft | 306 kts | 79° |
| 2026-05-04 18:23 | 49.98999 | 19.79654 | 9466 ft | 307 kts | 79° |
| 2026-05-04 18:23 | 49.99438 | 19.82896 | 9069 ft | 306 kts | 79° |
| 2026-05-04 18:23 | 49.99869 | 19.86081 | 8762 ft | 300 kts | 79° |
| 2026-05-04 18:24 | 50.00281 | 19.89140 | 8626 ft | 279 kts | 79° |
| 2026-05-04 18:24 | 50.00670 | 19.92016 | 8333 ft | 266 kts | 79° |
| 2026-05-04 18:24 | 50.01048 | 19.94819 | 7986 ft | 262 kts | 79° |
| 2026-05-04 18:24 | 50.01424 | 19.97604 | 7859 ft | 263 kts | 79° |
| 2026-05-04 18:25 | 50.01795 | 20.00347 | 7668 ft | 264 kts | 79° |
| 2026-05-04 18:25 | 50.02175 | 20.03142 | 7259 ft | 263 kts | 79° |
| 2026-05-04 18:25 | 50.02548 | 20.05878 | 7099 ft | 254 kts | 79° |
| 2026-05-04 18:25 | 50.03060 | 20.08413 | 6906 ft | 241 kts | 60° |
| 2026-05-04 18:26 | 50.04214 | 20.10313 | 6194 ft | 249 kts | 27° |
| 2026-05-04 18:26 | 50.05841 | 20.10993 | 5775 ft | 239 kts | 356° |
| 2026-05-04 18:26 | 50.07445 | 20.10562 | 5423 ft | 230 kts | 338° |
| 2026-05-04 18:26 | 50.08828 | 20.09472 | 5122 ft | 219 kts | 320° |
| 2026-05-04 18:27 | 50.09890 | 20.07895 | 4975 ft | 203 kts | 304° |
| 2026-05-04 18:27 | 50.10620 | 20.06023 | 4502 ft | 205 kts | 289° |
| 2026-05-04 18:27 | 50.10998 | 20.03863 | 3949 ft | 208 kts | 272° |
| 2026-05-04 18:27 | 50.10970 | 20.01673 | 3584 ft | 202 kts | 257° |
| 2026-05-04 18:28 | 50.10685 | 19.99572 | 3307 ft | 195 kts | 255° |
| 2026-05-04 18:28 | 50.10413 | 19.97580 | 3060 ft | 181 kts | 256° |
| 2026-05-04 18:28 | 50.10160 | 19.95716 | 2816 ft | 171 kts | 255° |
| 2026-05-04 18:28 | 50.09925 | 19.93975 | 2593 ft | 157 kts | 255° |
| 2026-05-04 18:29 | 50.09709 | 19.92403 | 2394 ft | 141 kts | 255° |
| 2026-05-04 18:29 | 50.09506 | 19.90951 | 2206 ft | 137 kts | 255° |
| 2026-05-04 18:29 | 50.09305 | 19.89508 | 2033 ft | 136 kts | 255° |
| 2026-05-04 18:29 | 50.09106 | 19.88070 | 1851 ft | 135 kts | 255° |
| 2026-05-04 18:30 | 50.08707 | 19.85227 | 1489 ft | 135 kts | 257° |
| 2026-05-04 18:30 | 50.08511 | 19.83796 | 1305 ft | 136 kts | 257° |
| 2026-05-04 18:30 | 50.08310 | 19.82355 | 1136 ft | 137 kts | 258° |
| 2026-05-04 18:31 | 50.08106 | 19.80902 | 993 ft | 138 kts | 258° |
| 2026-05-04 18:31 | 50.07906 | 19.79464 | 807 ft | 137 kts | 258° |
| 2026-05-04 18:31 | 50.07747 | 19.78283 | 800 ft | 86 kts | 258° |
| 2026-05-04 18:31 | 50.07652 | 19.77606 | 799 ft | 34 kts | 257° |
| 2026-05-04 18:32 | 50.07604 | 19.77270 | 801 ft | 30 kts | 257° |
| 2026-05-04 18:32 | 50.07560 | 19.76957 | 802 ft | 29 kts | 258° |
| 2026-05-04 18:32 | 50.07433 | 19.76860 | 800 ft | 24 kts | 167° |
| 2026-05-04 18:32 | 50.07414 | 19.76867 | 800 ft | 0 kts | 166° |
| 2026-05-04 18:33 | 50.07406 | 19.76870 | 800 ft | 6 kts | 166° |
| 2026-05-04 18:33 | 50.07332 | 19.76901 | 800 ft | 11 kts | 147° |
| 2026-05-04 18:33 | 50.07312 | 19.76997 | 800 ft | 9 kts | 78° |
| 2026-05-04 18:34 | 50.07326 | 19.77091 | 800 ft | 8 kts | 77° |
| 2026-05-04 18:34 | 50.07338 | 19.77175 | 800 ft | 9 kts | 78° |
| 2026-05-04 18:34 | 50.07355 | 19.77306 | 800 ft | 16 kts | 77° |
| 2026-05-04 18:34 | 50.07382 | 19.77495 | 800 ft | 19 kts | 78° |
| 2026-05-04 18:35 | 50.07411 | 19.77704 | 800 ft | 20 kts | 77° |
| 2026-05-04 18:35 | 50.07442 | 19.77927 | 800 ft | 21 kts | 78° |
| 2026-05-04 18:35 | 50.07474 | 19.78161 | 800 ft | 23 kts | 77° |
| 2026-05-04 18:35 | 50.07509 | 19.78408 | 800 ft | 24 kts | 78° |
| 2026-05-04 18:36 | 50.07546 | 19.78671 | 800 ft | 24 kts | 78° |
| 2026-05-04 18:36 | 50.07582 | 19.78934 | 800 ft | 24 kts | 78° |
| 2026-05-04 18:36 | 50.07617 | 19.79176 | 800 ft | 23 kts | 77° |
| 2026-05-04 18:36 | 50.07650 | 19.79413 | 800 ft | 22 kts | 77° |
| 2026-05-04 18:37 | 50.07681 | 19.79645 | 800 ft | 20 kts | 78° |
| 2026-05-04 18:37 | 50.07703 | 19.79820 | 800 ft | 15 kts | 94° |
| 2026-05-04 18:37 | 50.07626 | 19.79894 | 800 ft | 14 kts | 166° |
| 2026-05-04 18:37 | 50.07525 | 19.79928 | 800 ft | 15 kts | 168° |
| 2026-05-04 18:38 | 50.07435 | 19.79959 | 800 ft | 13 kts | 162° |
| 2026-05-04 18:38 | 50.07358 | 19.79990 | 800 ft | 8 kts | 167° |
| 2026-05-04 18:38 | 50.07317 | 19.80003 | 800 ft | 3 kts | 167° |
| 2026-05-04 18:38 | 50.07308 | 19.80007 | 800 ft | 0 kts | 167° |
| 2026-05-04 18:39 | 50.07307 | 19.80007 | 800 ft | 0 kts | 168° |